createdAt,value
2022-11-26T00:02:28.618Z,6.83
2022-11-26T00:04:58.452Z,10.87
2022-11-26T00:07:29.003Z,8.27
2022-11-26T00:09:59.315Z,8.37
2022-11-26T00:12:29.787Z,9.70
2022-11-26T00:14:58.028Z,9.43
2022-11-26T00:17:28.002Z,8.25
2022-11-26T00:19:56.067Z,9.50
2022-11-26T00:22:27.413Z,7.37
2022-11-26T00:24:56.556Z,10.43
2022-11-26T00:27:29.445Z,8.63
2022-11-26T00:29:57.596Z,12.37
2022-11-26T00:32:29.037Z,9.73
2022-11-26T00:34:57.577Z,8.63
2022-11-26T00:37:29.309Z,7.17
2022-11-26T00:39:58.792Z,8.80
2022-11-26T00:42:27.563Z,14.67
2022-11-26T00:44:55.631Z,9.70
2022-11-26T00:47:24.241Z,7.20
2022-11-26T00:49:54.177Z,7.10
2022-11-26T00:52:34.836Z,10.52
2022-11-26T00:55:08.772Z,6.83
2022-11-26T00:57:37.721Z,8.00
2022-11-26T01:00:16.230Z,9.60
2022-11-26T01:02:44.868Z,7.97
2022-11-26T01:05:14.526Z,7.73
2022-11-26T01:07:44.001Z,8.57
2022-11-26T01:10:18.362Z,6.70
2022-11-26T01:12:46.951Z,7.47
2022-11-26T01:15:16.164Z,6.27
2022-11-26T01:17:45.185Z,7.40
2022-11-26T01:20:25.605Z,7.53
2022-11-26T01:22:55.369Z,8.27
2022-11-26T01:25:24.500Z,7.87
2022-11-26T01:27:52.728Z,7.23
2022-11-26T01:30:25.037Z,6.10
2022-11-26T01:32:53.501Z,6.03
2022-11-26T01:35:24.115Z,6.10
2022-11-26T01:37:52.213Z,6.70
2022-11-26T01:40:56.586Z,6.83
2022-11-26T01:43:28.132Z,5.27
2022-11-26T01:45:57.917Z,10.60
2022-11-26T01:48:32.161Z,5.87
2022-11-26T01:51:07.668Z,6.47
2022-11-26T01:53:43.389Z,9.43
2022-11-26T01:56:32.851Z,8.50
2022-11-26T01:59:07.812Z,8.33
2022-11-26T02:01:37.107Z,7.57
2022-11-26T02:04:14.007Z,8.23
2022-11-26T02:06:46.436Z,8.43
2022-11-26T02:09:14.882Z,5.83
2022-11-26T02:11:43.737Z,5.13
2022-11-26T02:14:15.802Z,9.10
2022-11-26T02:17:06.068Z,5.83
2022-11-26T02:20:18.817Z,8.63
2022-11-26T02:23:24.095Z,7.50
2022-11-26T02:26:34.366Z,6.70
2022-11-26T02:29:11.781Z,8.10
2022-11-26T02:31:46.853Z,7.33
2022-11-26T02:34:20.603Z,9.47
2022-11-26T02:36:53.319Z,11.13
2022-11-26T02:39:24.340Z,9.13
2022-11-26T02:41:55.098Z,6.83
2022-11-26T02:44:26.509Z,8.43
2022-11-26T02:47:00.795Z,9.20
2022-11-26T02:49:31.066Z,7.10
2022-11-26T02:52:03.548Z,9.30
2022-11-26T02:54:34.697Z,6.37
2022-11-26T02:57:07.226Z,9.25
2022-11-26T02:59:36.923Z,6.70
2022-11-26T03:02:11.147Z,8.50
2022-11-26T03:04:42.622Z,6.73
2022-11-26T03:07:13.043Z,7.50
2022-11-26T03:09:42.958Z,7.67
2022-11-26T03:12:11.124Z,9.27
2022-11-26T03:14:39.917Z,9.60
2022-11-26T03:17:09.545Z,8.17
2022-11-26T03:19:38.115Z,7.17
2022-11-26T03:22:06.220Z,9.93
2022-11-26T03:24:34.824Z,8.67
2022-11-26T03:27:05.829Z,7.63
2022-11-26T03:29:34.614Z,11.03
2022-11-26T03:32:03.241Z,9.83
2022-11-26T03:34:33.009Z,6.33
2022-11-26T03:37:01.586Z,8.77
2022-11-26T03:39:29.734Z,7.47
2022-11-26T03:41:58.307Z,9.67
2022-11-26T03:44:26.440Z,8.00
2022-11-26T03:46:55.043Z,11.97
2022-11-26T03:49:23.190Z,9.57
2022-11-26T03:51:53.156Z,10.43
2022-11-26T03:54:21.246Z,9.90
2022-11-26T03:56:49.893Z,8.53
2022-11-26T03:59:18.464Z,11.07
2022-11-26T04:01:47.161Z,7.73
2022-11-26T04:04:15.279Z,14.13
2022-11-26T04:06:43.906Z,8.87
2022-11-26T04:09:13.853Z,8.57
2022-11-26T04:11:41.949Z,8.40
2022-11-26T04:14:10.533Z,13.07
2022-11-26T04:16:39.021Z,8.53
2022-11-26T04:19:07.166Z,8.47
2022-11-26T04:21:35.723Z,6.97
2022-11-26T04:24:03.861Z,12.97
2022-11-26T04:26:34.030Z,9.63
2022-11-26T04:29:02.639Z,7.30
2022-11-26T04:31:32.006Z,9.87
2022-11-26T04:34:00.135Z,8.97
2022-11-26T04:36:28.860Z,8.87
2022-11-26T04:38:58.085Z,9.57
2022-11-26T04:41:26.563Z,10.17
2022-11-26T04:43:56.341Z,10.87
2022-11-26T04:46:24.598Z,7.90
2022-11-26T04:48:53.217Z,9.70
2022-11-26T04:51:21.377Z,11.43
2022-11-26T04:53:51.416Z,7.40
2022-11-26T04:56:23.351Z,8.60
2022-11-26T04:58:51.539Z,11.10
2022-11-26T05:01:21.432Z,7.57
2022-11-26T05:03:49.561Z,9.88
2022-11-26T05:06:17.699Z,11.93
2022-11-26T05:08:46.252Z,8.45
2022-11-26T05:11:14.399Z,10.00
2022-11-26T05:13:43.363Z,8.40
2022-11-26T05:16:11.728Z,10.07
2022-11-26T05:18:41.748Z,8.57
2022-11-26T05:21:09.833Z,8.53
2022-11-26T05:23:38.046Z,7.37
2022-11-26T05:26:06.483Z,8.80
2022-11-26T05:28:34.615Z,6.93
2022-11-26T05:31:05.154Z,9.37
2022-11-26T05:33:33.395Z,8.10
2022-11-26T05:36:03.456Z,9.53
2022-11-26T05:38:31.625Z,7.50
2022-11-26T05:40:59.742Z,7.47
2022-11-26T05:43:28.651Z,8.20
2022-11-26T05:45:56.851Z,10.00
2022-11-26T05:48:25.424Z,11.57
2022-11-26T05:50:58.766Z,10.90
2022-11-26T05:53:29.283Z,7.47
2022-11-26T05:55:58.050Z,6.67
2022-11-26T05:58:26.144Z,8.38
2022-11-26T06:00:55.155Z,6.13
2022-11-26T06:03:23.970Z,6.97
2022-11-26T06:05:52.162Z,8.88
2022-11-26T06:08:20.580Z,10.50
2022-11-26T06:10:50.002Z,7.47
2022-11-26T06:13:18.198Z,8.60
2022-11-26T06:15:46.378Z,8.68
2022-11-26T06:18:14.473Z,8.70
2022-11-26T06:20:43.100Z,10.27
2022-11-26T06:23:11.352Z,8.87
2022-11-26T06:25:41.791Z,7.37
2022-11-26T06:28:11.451Z,6.03
2022-11-26T06:30:40.010Z,7.93
2022-11-26T06:33:08.095Z,7.00
2022-11-26T06:35:36.674Z,7.38
2022-11-26T06:38:04.900Z,6.03
2022-11-26T06:40:33.703Z,10.55
2022-11-26T06:43:01.787Z,8.40
2022-11-26T06:45:32.126Z,8.97
2022-11-26T06:48:00.784Z,8.85
2022-11-26T06:50:29.008Z,10.45
2022-11-26T06:52:57.295Z,8.93
2022-11-26T06:55:25.332Z,10.93
2022-11-26T06:57:56.294Z,9.57
2022-11-26T07:00:24.561Z,9.60
2022-11-26T07:02:54.524Z,7.68
2022-11-26T07:05:22.709Z,7.10
2022-11-26T07:07:51.327Z,8.30
2022-11-26T07:10:20.265Z,9.60
2022-11-26T07:12:48.802Z,8.73
2022-11-26T07:15:16.939Z,9.07
2022-11-26T07:17:45.511Z,10.60
2022-11-26T07:20:16.250Z,8.83
2022-11-26T07:22:44.420Z,11.20
2022-11-26T07:25:13.106Z,7.70
2022-11-26T07:27:41.367Z,12.88
2022-11-26T07:30:11.300Z,8.90
2022-11-26T07:32:39.983Z,10.17
2022-11-26T07:35:08.898Z,9.30
2022-11-26T07:37:38.906Z,7.50
2022-11-26T07:40:08.930Z,7.60
2022-11-26T07:42:37.209Z,9.77
2022-11-26T07:45:05.853Z,11.93
2022-11-26T07:47:34.288Z,9.67
2022-11-26T07:50:02.946Z,9.03
2022-11-26T07:52:31.119Z,12.37
2022-11-26T07:55:00.553Z,8.90
2022-11-26T07:57:28.714Z,8.87
2022-11-26T07:59:57.581Z,8.00
2022-11-26T08:02:25.786Z,6.47
2022-11-26T08:04:54.372Z,7.63
2022-11-26T08:07:27.699Z,7.37
2022-11-26T08:09:58.304Z,8.83
2022-11-26T08:12:28.469Z,9.97
2022-11-26T08:14:56.535Z,9.00
2022-11-26T08:17:25.206Z,10.10
2022-11-26T08:19:53.307Z,8.40
2022-11-26T08:22:21.409Z,8.53
2022-11-26T08:24:50.329Z,8.33
2022-11-26T08:27:18.890Z,8.00
2022-11-26T08:29:48.385Z,7.80
2022-11-26T08:32:17.042Z,8.53
2022-11-26T08:34:45.153Z,8.47
2022-11-26T08:37:13.300Z,8.80
2022-11-26T08:39:41.927Z,8.67
2022-11-26T08:42:10.489Z,8.30
2022-11-26T08:44:39.486Z,11.37
2022-11-26T08:47:09.972Z,8.03
2022-11-26T08:49:38.688Z,7.47
2022-11-26T08:52:07.028Z,9.90
2022-11-26T08:54:37.884Z,7.73
2022-11-26T08:57:07.878Z,9.75
2022-11-26T08:59:36.575Z,9.67
2022-11-26T09:02:05.395Z,7.30
2022-11-26T09:04:36.598Z,9.37
2022-11-26T09:07:05.703Z,11.73
2022-11-26T09:09:36.619Z,10.63
2022-11-26T09:12:05.491Z,11.60
2022-11-26T09:14:38.666Z,10.63
2022-11-26T09:17:08.361Z,10.07
2022-11-26T09:19:38.575Z,11.60
2022-11-26T09:22:07.296Z,13.90
2022-11-26T09:24:38.712Z,9.47
2022-11-26T09:27:08.275Z,12.27
2022-11-26T09:29:37.071Z,9.93
2022-11-26T09:32:23.526Z,11.30
2022-11-26T09:34:55.170Z,11.50
2022-11-26T09:37:23.466Z,13.32
2022-11-26T09:39:52.044Z,12.20
2022-11-26T09:42:30.796Z,9.70
2022-11-26T09:45:10.434Z,10.38
2022-11-26T09:47:42.273Z,9.83
2022-11-26T09:50:25.316Z,8.80
2022-11-26T09:52:56.662Z,11.53
2022-11-26T09:55:29.273Z,11.47
2022-11-26T09:58:07.750Z,13.37
2022-11-26T10:00:40.655Z,8.93
2022-11-26T10:03:15.843Z,10.30
2022-11-26T10:05:52.138Z,9.40
2022-11-26T10:08:49.097Z,14.07
2022-11-26T10:11:25.359Z,9.80
2022-11-26T10:14:00.289Z,8.27
2022-11-26T10:16:35.807Z,13.20
2022-11-26T10:19:12.687Z,15.25
2022-11-26T10:21:58.569Z,8.37
2022-11-26T10:24:31.455Z,10.80
2022-11-26T10:27:02.655Z,7.93
2022-11-26T10:29:38.893Z,8.47
2022-11-26T10:32:16.065Z,9.83
2022-11-26T10:34:51.011Z,13.43
2022-11-26T10:37:22.106Z,10.50
2022-11-26T10:39:56.792Z,12.03
2022-11-26T10:42:27.323Z,10.17
2022-11-26T10:44:55.828Z,11.37
2022-11-26T10:47:29.896Z,10.90
2022-11-26T10:50:45.916Z,13.13
2022-11-26T10:53:08.141Z,11.57
2022-11-26T10:55:41.215Z,10.63
2022-11-26T10:58:17.644Z,12.00
2022-11-26T11:00:55.062Z,11.73
2022-11-26T11:03:59.348Z,9.67
2022-11-26T11:06:28.556Z,10.40
2022-11-26T11:08:58.543Z,10.77
2022-11-26T11:11:29.048Z,11.73
2022-11-26T11:13:58.814Z,11.10
2022-11-26T11:16:29.718Z,15.60
2022-11-26T11:19:00.600Z,11.73
2022-11-26T11:21:34.974Z,11.70
2022-11-26T11:24:16.611Z,11.25
2022-11-26T11:26:47.116Z,10.93
2022-11-26T11:29:37.867Z,10.27
2022-11-26T11:32:08.078Z,10.50
2022-11-26T11:34:39.254Z,13.17
2022-11-26T11:37:19.660Z,14.00
2022-11-26T11:40:04.815Z,12.17
2022-11-26T11:42:33.533Z,12.70
2022-11-26T11:45:02.690Z,11.50
2022-11-26T11:47:38.080Z,11.70
2022-11-26T11:50:19.841Z,13.13
2022-11-26T11:53:06.946Z,12.83
2022-11-26T11:56:02.276Z,15.10
2022-11-26T11:58:48.621Z,14.30
2022-11-26T12:01:30.204Z,14.80
2022-11-26T12:04:22.503Z,13.33
2022-11-26T12:07:14.722Z,15.20
2022-11-26T12:09:48.254Z,11.30
2022-11-26T12:12:24.454Z,15.13
2022-11-26T12:14:55.720Z,14.70
2022-11-26T12:17:33.162Z,11.83
2022-11-26T12:20:11.029Z,15.27
2022-11-26T12:22:43.939Z,11.48
2022-11-26T12:25:24.210Z,14.27
2022-11-26T12:28:00.225Z,12.03
2022-11-26T12:30:38.521Z,13.07
2022-11-26T12:33:12.323Z,14.90
2022-11-26T12:35:45.498Z,12.73
2022-11-26T12:38:18.124Z,12.63
2022-11-26T12:40:53.019Z,14.57
2022-11-26T12:43:27.763Z,13.15
2022-11-26T12:46:00.850Z,13.07
2022-11-26T12:48:37.667Z,12.50
2022-11-26T12:51:17.744Z,12.23
2022-11-26T12:53:54.070Z,12.05
2022-11-26T12:56:27.940Z,10.73
2022-11-26T12:59:03.654Z,11.48
2022-11-26T13:01:33.235Z,12.48
2022-11-26T13:04:35.514Z,11.13
2022-11-26T13:07:06.881Z,12.80
2022-11-26T13:09:59.616Z,10.90
2022-11-26T13:12:39.480Z,12.38
2022-11-26T13:15:20.008Z,11.43
2022-11-26T13:17:51.742Z,11.50
2022-11-26T13:20:37.744Z,18.90
2022-11-26T13:23:17.820Z,14.70
2022-11-26T13:26:02.269Z,12.40
2022-11-26T13:28:49.238Z,11.30
2022-11-26T13:31:38.414Z,10.47
2022-11-26T13:34:30.931Z,11.10
2022-11-26T13:37:20.988Z,10.90
2022-11-26T13:40:15.503Z,9.43
2022-11-26T13:43:02.921Z,11.50
2022-11-26T13:45:51.614Z,9.37
2022-11-26T13:48:28.387Z,11.87
2022-11-26T13:51:03.243Z,10.43
2022-11-26T13:53:37.196Z,10.40
2022-11-26T13:56:07.619Z,11.27
2022-11-26T13:58:43.746Z,10.87
2022-11-26T14:01:31.596Z,11.65
2022-11-26T14:04:01.410Z,11.03
2022-11-26T14:06:29.661Z,13.60
2022-11-26T14:08:58.561Z,10.60
2022-11-26T14:11:57.124Z,12.77
2022-11-26T14:14:37.261Z,11.03
2022-11-26T14:17:34.934Z,12.90
2022-11-26T14:20:12.581Z,10.80
2022-11-26T14:22:41.232Z,12.63
2022-11-26T14:25:12.650Z,13.73
2022-11-26T14:27:53.134Z,12.33
2022-11-26T14:30:27.357Z,10.57
2022-11-26T14:33:12.891Z,18.20
2022-11-26T14:35:52.717Z,10.53
2022-11-26T14:38:26.605Z,10.87
2022-11-26T14:41:00.519Z,12.20
2022-11-26T14:43:30.005Z,10.87
2022-11-26T14:46:05.302Z,11.00
2022-11-26T14:48:36.995Z,11.23
2022-11-26T14:51:10.017Z,11.27
2022-11-26T14:53:45.110Z,13.73
2022-11-26T14:56:13.335Z,10.10
2022-11-26T14:58:45.856Z,13.43
2022-11-26T15:01:21.253Z,13.97
2022-11-26T15:03:59.049Z,10.60
2022-11-26T15:06:30.426Z,14.40
2022-11-26T15:09:24.977Z,13.07
2022-11-26T15:12:01.885Z,12.07
2022-11-26T15:14:41.343Z,13.90
2022-11-26T15:17:14.368Z,14.67
2022-11-26T15:19:43.876Z,14.63
2022-11-26T15:22:22.703Z,14.57
2022-11-26T15:24:52.422Z,12.57
2022-11-26T15:27:31.729Z,14.30
2022-11-26T15:29:59.939Z,14.20
2022-11-26T15:32:30.456Z,12.53
2022-11-26T15:35:01.420Z,12.57
2022-11-26T15:37:31.475Z,9.50
2022-11-26T15:40:12.187Z,11.87
2022-11-26T15:42:40.940Z,10.30
2022-11-26T15:45:16.345Z,12.73
2022-11-26T15:47:49.481Z,9.20
2022-11-26T15:50:28.009Z,11.37
2022-11-26T15:53:04.539Z,10.23
2022-11-26T15:55:35.773Z,10.77
2022-11-26T15:58:10.340Z,13.17
2022-11-26T16:00:41.031Z,12.67
2022-11-26T16:03:41.518Z,13.97
2022-11-26T16:06:34.644Z,15.47
2022-11-26T16:09:09.155Z,11.70
2022-11-26T16:11:39.630Z,11.43
2022-11-26T16:14:24.957Z,12.83
2022-11-26T16:16:53.838Z,13.03
2022-11-26T16:19:23.545Z,16.60
2022-11-26T16:21:54.141Z,12.57
2022-11-26T16:24:32.260Z,19.07
2022-11-26T16:27:02.450Z,16.77
2022-11-26T16:29:32.635Z,13.63
2022-11-26T16:32:01.462Z,15.43
2022-11-26T16:34:30.125Z,15.57
2022-11-26T16:37:03.023Z,13.27
2022-11-26T16:39:37.652Z,13.60
2022-11-26T16:42:15.581Z,18.03
2022-11-26T16:44:43.746Z,16.87
2022-11-26T16:47:16.999Z,20.17
2022-11-26T16:49:45.082Z,19.70
2022-11-26T16:52:16.025Z,17.57
2022-11-26T16:54:55.818Z,19.07
2022-11-26T16:57:29.041Z,20.43
2022-11-26T17:00:02.048Z,18.30
2022-11-26T17:02:30.867Z,19.10
2022-11-26T17:04:59.483Z,17.57
2022-11-26T17:07:30.549Z,18.23
2022-11-26T17:10:00.337Z,20.43
2022-11-26T17:12:29.063Z,26.37
2022-11-26T17:14:57.739Z,23.27
2022-11-26T17:17:30.181Z,19.37
2022-11-26T17:19:58.486Z,20.87
2022-11-26T17:22:27.024Z,21.80
2022-11-26T17:25:02.862Z,18.40
2022-11-26T17:27:31.470Z,17.67
2022-11-26T17:29:59.528Z,18.83
2022-11-26T17:32:28.089Z,20.40
2022-11-26T17:34:56.675Z,19.67
2022-11-26T17:37:29.149Z,19.87
2022-11-26T17:39:58.535Z,17.67
2022-11-26T17:42:32.156Z,18.47
2022-11-26T17:45:03.490Z,16.97
2022-11-26T17:47:32.147Z,18.03
2022-11-26T17:50:00.785Z,19.07
2022-11-26T17:52:28.958Z,20.80
2022-11-26T17:54:57.587Z,18.37
2022-11-26T17:57:28.366Z,17.23
2022-11-26T18:03:45.019Z,19.37
2022-11-26T18:06:17.174Z,18.40
2022-11-26T18:08:45.515Z,20.20
2022-11-26T18:11:14.856Z,19.43
2022-11-26T18:13:45.739Z,20.97
2022-11-26T18:16:13.929Z,20.27
2022-11-26T18:18:42.554Z,19.07
2022-11-26T18:21:11.760Z,21.53
2022-11-26T18:23:41.389Z,23.13
2022-11-26T18:26:17.329Z,24.03
2022-11-26T18:28:46.838Z,24.10
2022-11-26T18:31:15.043Z,27.40
2022-11-26T18:33:43.177Z,25.60
2022-11-26T18:36:13.113Z,22.20
2022-11-26T18:38:41.235Z,20.03
2022-11-26T18:41:09.857Z,19.73
2022-11-26T18:43:39.931Z,21.37
2022-11-26T18:46:15.963Z,21.20
2022-11-26T18:48:46.334Z,20.57
2022-11-26T18:51:15.636Z,19.27
2022-11-26T18:53:44.739Z,23.00
2022-11-26T18:56:15.017Z,24.27
2022-11-26T18:58:43.690Z,22.63
2022-11-26T19:01:19.300Z,23.03
2022-11-26T19:03:47.514Z,22.40
2022-11-26T19:06:17.850Z,21.07
2022-11-26T19:08:46.688Z,21.60
2022-11-26T19:11:16.964Z,25.10
2022-11-26T19:13:45.392Z,24.33
2022-11-26T19:16:18.215Z,22.00
2022-11-26T19:18:47.052Z,20.70
2022-11-26T19:21:20.890Z,21.83
2022-11-26T19:23:49.367Z,22.13
2022-11-26T19:26:17.896Z,20.70
2022-11-26T19:28:46.458Z,24.27
2022-11-26T19:31:18.660Z,25.10
2022-11-26T19:33:48.235Z,25.00
2022-11-26T19:36:18.047Z,27.97
2022-11-26T19:38:46.676Z,29.10
2022-11-26T19:41:15.711Z,25.83
2022-11-26T19:43:44.236Z,24.20
2022-11-26T19:46:15.879Z,26.23
2022-11-26T19:48:50.854Z,24.33
2022-11-26T19:51:22.325Z,29.53
2022-11-26T19:53:52.390Z,26.90
2022-11-26T19:56:22.771Z,27.17
2022-11-26T19:58:53.874Z,24.97
2022-11-26T20:01:22.782Z,26.20
2022-11-26T20:03:53.435Z,26.97
2022-11-26T20:06:23.141Z,25.17
2022-11-26T20:08:51.985Z,23.50
2022-11-26T20:11:21.327Z,24.90
2022-11-26T20:13:50.903Z,24.93
2022-11-26T20:16:21.558Z,24.57
2022-11-26T20:18:51.653Z,25.17
2022-11-26T20:21:22.286Z,26.00
2022-11-26T20:23:51.739Z,25.37
2022-11-26T20:26:22.887Z,26.10
2022-11-26T20:28:51.330Z,22.53
2022-11-26T20:31:23.634Z,23.57
2022-11-26T20:33:54.564Z,21.90
2022-11-26T20:36:24.120Z,21.70
2022-11-26T20:38:56.038Z,22.83
2022-11-26T20:41:26.845Z,24.37
2022-11-26T20:43:59.189Z,24.10
2022-11-26T20:46:29.185Z,31.57
2022-11-26T20:48:58.983Z,30.73
2022-11-26T20:51:27.586Z,33.00
2022-11-26T20:53:59.758Z,29.47
2022-11-26T20:56:28.733Z,31.00
2022-11-26T20:58:57.645Z,27.37
2022-11-26T21:01:27.885Z,25.50
2022-11-26T21:04:01.525Z,25.33
2022-11-26T21:06:31.470Z,25.60
2022-11-26T21:09:02.364Z,25.20
2022-11-26T21:11:31.487Z,25.17
2022-11-26T21:14:01.963Z,25.60
2022-11-26T21:16:31.341Z,25.27
2022-11-26T21:19:02.096Z,26.03
2022-11-26T21:21:30.950Z,28.20
2022-11-26T21:24:00.006Z,27.90
2022-11-26T21:26:28.420Z,31.60
2022-11-26T21:28:58.397Z,41.53
2022-11-26T21:31:28.296Z,37.20
2022-11-26T21:33:57.941Z,31.07
2022-11-26T21:36:27.996Z,31.47
2022-11-26T21:38:56.719Z,35.07
2022-11-26T21:41:25.610Z,30.07
2022-11-26T21:43:54.560Z,29.10
2022-11-26T21:46:24.695Z,29.33
2022-11-26T21:48:57.518Z,33.03
2022-11-26T21:51:28.850Z,31.63
2022-11-26T21:53:58.827Z,29.00
2022-11-26T21:56:29.077Z,39.00
2022-11-26T21:58:58.965Z,33.43
2022-11-26T22:01:29.940Z,30.90
2022-11-26T22:04:01.597Z,28.80
2022-11-26T22:06:31.320Z,24.07
2022-11-26T22:09:00.162Z,24.23
2022-11-26T22:11:30.529Z,22.17
2022-11-26T22:13:58.950Z,24.70
2022-11-26T22:16:29.089Z,22.93
2022-11-26T22:18:58.107Z,22.27
2022-11-26T22:21:30.405Z,25.40
2022-11-26T22:24:00.896Z,25.13
2022-11-26T22:26:30.314Z,25.73
2022-11-26T22:28:59.066Z,21.43
2022-11-26T22:31:28.838Z,22.60
2022-11-26T22:33:58.615Z,16.67
2022-11-26T22:36:27.032Z,16.47
2022-11-26T22:38:55.588Z,18.77
2022-11-26T22:41:25.339Z,19.03
2022-11-26T22:43:54.248Z,18.60
2022-11-26T22:46:24.200Z,17.30
2022-11-26T22:48:54.536Z,14.10
2022-11-26T22:51:23.627Z,11.93
2022-11-26T22:53:52.746Z,10.93
2022-11-26T22:56:21.344Z,10.93
2022-11-26T22:58:50.992Z,11.60
2022-11-26T23:01:22.065Z,21.50
2022-11-26T23:03:50.896Z,14.70
2022-11-26T23:06:21.064Z,11.40
2022-11-26T23:08:49.726Z,11.63
2022-11-26T23:11:20.282Z,29.70
2022-11-26T23:13:50.782Z,27.23
2022-11-26T23:16:20.670Z,44.37
2022-11-26T23:18:49.561Z,40.40
2022-11-26T23:21:20.212Z,47.13
2022-11-26T23:23:49.571Z,31.50
2022-11-26T23:26:26.141Z,28.13
2022-11-26T23:28:58.142Z,12.30
2022-11-26T23:31:29.386Z,23.83
2022-11-26T23:34:01.949Z,23.30
2022-11-26T23:36:32.639Z,18.90
2022-11-26T23:39:02.254Z,25.03
2022-11-26T23:41:31.131Z,22.27
2022-11-26T23:44:01.338Z,24.13
2022-11-26T23:46:31.367Z,18.10
2022-11-26T23:48:59.910Z,15.57
2022-11-26T23:51:29.814Z,28.47
2022-11-26T23:53:58.743Z,15.43
2022-11-26T23:56:28.871Z,15.03
2022-11-26T23:58:58.805Z,13.73
